sensor_id;sensor_type;location;lat;lon;timestamp;temperature;humidity
17307;DHT22;8771;48.048;7.682;2023-03-11T00:00:37;7.10;71.10
17307;DHT22;8771;48.048;7.682;2023-03-11T00:05:44;7.00;71.10
17307;DHT22;8771;48.048;7.682;2023-03-11T00:10:50;7.00;71.20
17307;DHT22;8771;48.048;7.682;2023-03-11T00:15:54;7.00;71.10
17307;DHT22;8771;48.048;7.682;2023-03-11T00:20:58;6.90;71.00
17307;DHT22;8771;48.048;7.682;2023-03-11T00:26:00;6.90;71.00
17307;DHT22;8771;48.048;7.682;2023-03-11T00:31:03;6.90;71.00
17307;DHT22;8771;48.048;7.682;2023-03-11T00:36:19;6.80;71.00
17307;DHT22;8771;48.048;7.682;2023-03-11T00:41:22;6.80;71.00
17307;DHT22;8771;48.048;7.682;2023-03-11T00:46:24;6.70;71.00
17307;DHT22;8771;48.048;7.682;2023-03-11T00:51:27;6.70;71.00
17307;DHT22;8771;48.048;7.682;2023-03-11T00:56:29;6.60;71.00
17307;DHT22;8771;48.048;7.682;2023-03-11T01:01:31;6.60;71.00
17307;DHT22;8771;48.048;7.682;2023-03-11T01:06:34;6.60;71.00
17307;DHT22;8771;48.048;7.682;2023-03-11T01:11:36;6.70;71.20
17307;DHT22;8771;48.048;7.682;2023-03-11T01:16:38;6.70;71.00
17307;DHT22;8771;48.048;7.682;2023-03-11T01:21:42;6.80;71.00
17307;DHT22;8771;48.048;7.682;2023-03-11T01:26:44;6.70;70.90
17307;DHT22;8771;48.048;7.682;2023-03-11T01:31:45;6.70;70.90
17307;DHT22;8771;48.048;7.682;2023-03-11T01:36:49;6.70;70.90
17307;DHT22;8771;48.048;7.682;2023-03-11T01:41:51;6.70;70.90
17307;DHT22;8771;48.048;7.682;2023-03-11T01:47:31;6.70;70.90
17307;DHT22;8771;48.048;7.682;2023-03-11T01:52:35;6.60;71.00
17307;DHT22;8771;48.048;7.682;2023-03-11T01:57:38;6.60;70.90
17307;DHT22;8771;48.048;7.682;2023-03-11T02:02:42;6.50;70.90
17307;DHT22;8771;48.048;7.682;2023-03-11T02:07:48;6.60;70.90
17307;DHT22;8771;48.048;7.682;2023-03-11T02:17:53;6.40;70.10
17307;DHT22;8771;48.048;7.682;2023-03-11T02:22:59;6.30;70.90
17307;DHT22;8771;48.048;7.682;2023-03-11T02:28:04;6.20;70.80
17307;DHT22;8771;48.048;7.682;2023-03-11T02:33:08;6.10;70.70
17307;DHT22;8771;48.048;7.682;2023-03-11T02:38:10;6.00;70.70
17307;DHT22;8771;48.048;7.682;2023-03-11T02:43:19;5.90;70.80
17307;DHT22;8771;48.048;7.682;2023-03-11T02:48:23;5.80;70.80
17307;DHT22;8771;48.048;7.682;2023-03-11T02:53:29;5.70;70.80
17307;DHT22;8771;48.048;7.682;2023-03-11T02:58:34;5.70;70.80
17307;DHT22;8771;48.048;7.682;2023-03-11T03:03:36;5.70;70.70
17307;DHT22;8771;48.048;7.682;2023-03-11T03:08:39;5.70;70.70
17307;DHT22;8771;48.048;7.682;2023-03-11T03:13:43;5.80;70.60
17307;DHT22;8771;48.048;7.682;2023-03-11T03:18:46;5.90;70.60
17307;DHT22;8771;48.048;7.682;2023-03-11T03:23:49;5.90;70.60
17307;DHT22;8771;48.048;7.682;2023-03-11T03:28:54;6.00;70.60
17307;DHT22;8771;48.048;7.682;2023-03-11T03:33:57;6.10;70.60
17307;DHT22;8771;48.048;7.682;2023-03-11T03:39:00;6.10;70.60
17307;DHT22;8771;48.048;7.682;2023-03-11T03:44:04;6.20;70.60
17307;DHT22;8771;48.048;7.682;2023-03-11T03:49:07;6.30;70.50
17307;DHT22;8771;48.048;7.682;2023-03-11T03:54:10;6.30;70.40
17307;DHT22;8771;48.048;7.682;2023-03-11T03:59:15;6.30;70.40
17307;DHT22;8771;48.048;7.682;2023-03-11T04:04:18;6.20;70.40
17307;DHT22;8771;48.048;7.682;2023-03-11T04:09:20;6.10;70.50
17307;DHT22;8771;48.048;7.682;2023-03-11T04:14:23;5.90;70.50
17307;DHT22;8771;48.048;7.682;2023-03-11T04:19:25;5.80;70.60
17307;DHT22;8771;48.048;7.682;2023-03-11T04:24:30;5.70;70.70
17307;DHT22;8771;48.048;7.682;2023-03-11T04:29:34;5.60;70.70
17307;DHT22;8771;48.048;7.682;2023-03-11T04:34:36;5.60;70.80
17307;DHT22;8771;48.048;7.682;2023-03-11T04:39:38;5.50;70.70
17307;DHT22;8771;48.048;7.682;2023-03-11T04:44:42;5.50;70.70
17307;DHT22;8771;48.048;7.682;2023-03-11T04:49:44;5.50;70.60
17307;DHT22;8771;48.048;7.682;2023-03-11T04:54:46;5.50;70.70
17307;DHT22;8771;48.048;7.682;2023-03-11T04:59:49;5.40;70.60
17307;DHT22;8771;48.048;7.682;2023-03-11T05:04:51;5.40;70.80
17307;DHT22;8771;48.048;7.682;2023-03-11T05:09:53;5.30;70.80
17307;DHT22;8771;48.048;7.682;2023-03-11T05:14:59;5.30;70.80
17307;DHT22;8771;48.048;7.682;2023-03-11T05:20:01;5.30;70.80
17307;DHT22;8771;48.048;7.682;2023-03-11T05:25:06;5.20;70.80
17307;DHT22;8771;48.048;7.682;2023-03-11T05:30:10;5.10;70.90
17307;DHT22;8771;48.048;7.682;2023-03-11T05:35:12;5.00;70.90
17307;DHT22;8771;48.048;7.682;2023-03-11T05:40:15;4.90;70.90
17307;DHT22;8771;48.048;7.682;2023-03-11T05:45:19;4.90;71.00
17307;DHT22;8771;48.048;7.682;2023-03-11T05:50:20;4.90;70.90
17307;DHT22;8771;48.048;7.682;2023-03-11T05:55:22;5.00;70.90
17307;DHT22;8771;48.048;7.682;2023-03-11T06:00:26;5.00;70.90
17307;DHT22;8771;48.048;7.682;2023-03-11T06:05:29;4.90;70.80
17307;DHT22;8771;48.048;7.682;2023-03-11T06:10:31;4.90;70.90
17307;DHT22;8771;48.048;7.682;2023-03-11T06:15:34;5.00;70.90
17307;DHT22;8771;48.048;7.682;2023-03-11T06:20:36;5.00;70.80
17307;DHT22;8771;48.048;7.682;2023-03-11T06:25:38;4.90;70.80
17307;DHT22;8771;48.048;7.682;2023-03-11T06:30:42;4.90;71.00
17307;DHT22;8771;48.048;7.682;2023-03-11T06:35:44;4.90;71.00
17307;DHT22;8771;48.048;7.682;2023-03-11T06:40:46;4.90;70.90
17307;DHT22;8771;48.048;7.682;2023-03-11T06:45:49;5.00;70.80
17307;DHT22;8771;48.048;7.682;2023-03-11T06:50:54;5.10;70.70
17307;DHT22;8771;48.048;7.682;2023-03-11T06:55:59;5.10;70.60
17307;DHT22;8771;48.048;7.682;2023-03-11T07:01:05;5.10;70.60
17307;DHT22;8771;48.048;7.682;2023-03-11T07:06:11;5.10;70.60
17307;DHT22;8771;48.048;7.682;2023-03-11T07:11:17;5.10;70.60
17307;DHT22;8771;48.048;7.682;2023-03-11T07:16:23;5.00;70.50
17307;DHT22;8771;48.048;7.682;2023-03-11T07:21:27;5.00;70.60
17307;DHT22;8771;48.048;7.682;2023-03-11T07:26:31;5.00;70.60
17307;DHT22;8771;48.048;7.682;2023-03-11T07:31:35;5.00;70.60
17307;DHT22;8771;48.048;7.682;2023-03-11T07:36:40;5.00;70.50
17307;DHT22;8771;48.048;7.682;2023-03-11T07:41:44;5.00;70.40
17307;DHT22;8771;48.048;7.682;2023-03-11T07:46:48;5.00;70.40
17307;DHT22;8771;48.048;7.682;2023-03-11T07:51:51;5.10;70.50
17307;DHT22;8771;48.048;7.682;2023-03-11T07:56:54;5.10;70.40
17307;DHT22;8771;48.048;7.682;2023-03-11T08:01:58;5.30;70.20
17307;DHT22;8771;48.048;7.682;2023-03-11T08:07:03;5.50;70.20
17307;DHT22;8771;48.048;7.682;2023-03-11T08:12:07;5.60;70.00
17307;DHT22;8771;48.048;7.682;2023-03-11T08:17:11;5.70;69.80
17307;DHT22;8771;48.048;7.682;2023-03-11T08:22:13;5.70;69.70
17307;DHT22;8771;48.048;7.682;2023-03-11T08:27:15;5.80;69.80
17307;DHT22;8771;48.048;7.682;2023-03-11T08:32:19;5.80;69.70
17307;DHT22;8771;48.048;7.682;2023-03-11T08:37:21;5.70;69.70
17307;DHT22;8771;48.048;7.682;2023-03-11T08:42:23;5.70;69.90
17307;DHT22;8771;48.048;7.682;2023-03-11T08:47:27;5.60;70.00
17307;DHT22;8771;48.048;7.682;2023-03-11T08:52:29;5.50;70.00
17307;DHT22;8771;48.048;7.682;2023-03-11T08:57:32;5.50;70.00
17307;DHT22;8771;48.048;7.682;2023-03-11T09:02:35;5.50;70.00
17307;DHT22;8771;48.048;7.682;2023-03-11T09:07:37;5.50;69.90
17307;DHT22;8771;48.048;7.682;2023-03-11T09:12:39;5.70;69.70
17307;DHT22;8771;48.048;7.682;2023-03-11T09:17:43;5.90;69.50
17307;DHT22;8771;48.048;7.682;2023-03-11T09:22:45;6.10;69.30
17307;DHT22;8771;48.048;7.682;2023-03-11T09:27:47;6.20;69.00
17307;DHT22;8771;48.048;7.682;2023-03-11T09:32:50;6.40;69.10
17307;DHT22;8771;48.048;7.682;2023-03-11T09:37:52;6.60;68.90
17307;DHT22;8771;48.048;7.682;2023-03-11T09:43:04;6.90;68.70
17307;DHT22;8771;48.048;7.682;2023-03-11T09:48:16;7.10;68.50
17307;DHT22;8771;48.048;7.682;2023-03-11T09:53:25;7.30;68.50
17307;DHT22;8771;48.048;7.682;2023-03-11T09:58:36;7.50;68.60
17307;DHT22;8771;48.048;7.682;2023-03-11T10:03:40;7.50;68.30
17307;DHT22;8771;48.048;7.682;2023-03-11T10:08:46;7.60;68.30
17307;DHT22;8771;48.048;7.682;2023-03-11T10:13:55;8.00;68.40
17307;DHT22;8771;48.048;7.682;2023-03-11T10:19:08;8.30;67.90
17307;DHT22;8771;48.048;7.682;2023-03-11T10:24:39;8.40;67.80
17307;DHT22;8771;48.048;7.682;2023-03-11T10:29:50;8.40;68.10
17307;DHT22;8771;48.048;7.682;2023-03-11T10:34:57;8.40;68.10
17307;DHT22;8771;48.048;7.682;2023-03-11T10:40:07;8.50;68.30
17307;DHT22;8771;48.048;7.682;2023-03-11T10:45:35;8.70;68.10
17307;DHT22;8771;48.048;7.682;2023-03-11T10:50:45;9.00;67.80
17307;DHT22;8771;48.048;7.682;2023-03-11T10:55:49;9.10;67.60
17307;DHT22;8771;48.048;7.682;2023-03-11T11:01:05;9.10;67.60
17307;DHT22;8771;48.048;7.682;2023-03-11T11:06:18;9.10;67.70
17307;DHT22;8771;48.048;7.682;2023-03-11T11:11:23;9.30;67.70
17307;DHT22;8771;48.048;7.682;2023-03-11T11:16:25;9.40;67.40
17307;DHT22;8771;48.048;7.682;2023-03-11T11:21:31;9.40;67.50
17307;DHT22;8771;48.048;7.682;2023-03-11T11:26:35;9.30;67.60
17307;DHT22;8771;48.048;7.682;2023-03-11T11:31:38;9.40;68.50
17307;DHT22;8771;48.048;7.682;2023-03-11T11:36:41;9.50;67.60
17307;DHT22;8771;48.048;7.682;2023-03-11T11:41:45;9.50;67.70
17307;DHT22;8771;48.048;7.682;2023-03-11T11:46:53;9.50;67.70
17307;DHT22;8771;48.048;7.682;2023-03-11T11:52:02;9.50;67.70
17307;DHT22;8771;48.048;7.682;2023-03-11T11:57:11;9.60;67.70
17307;DHT22;8771;48.048;7.682;2023-03-11T12:02:26;9.80;67.30
17307;DHT22;8771;48.048;7.682;2023-03-11T12:07:49;10.10;67.00
17307;DHT22;8771;48.048;7.682;2023-03-11T12:18:45;10.00;67.00
17307;DHT22;8771;48.048;7.682;2023-03-11T12:24:01;9.90;67.20
17307;DHT22;8771;48.048;7.682;2023-03-11T12:29:11;10.10;67.10
17307;DHT22;8771;48.048;7.682;2023-03-11T12:34:19;10.40;66.70
17307;DHT22;8771;48.048;7.682;2023-03-11T12:39:28;10.70;66.40
17307;DHT22;8771;48.048;7.682;2023-03-11T12:44:31;10.70;66.20
17307;DHT22;8771;48.048;7.682;2023-03-11T12:49:35;10.70;66.40
17307;DHT22;8771;48.048;7.682;2023-03-11T12:54:40;10.70;66.60
17307;DHT22;8771;48.048;7.682;2023-03-11T13:00:02;10.80;65.90
17307;DHT22;8771;48.048;7.682;2023-03-11T13:05:17;11.00;66.30
17307;DHT22;8771;48.048;7.682;2023-03-11T13:10:37;11.20;66.00
17307;DHT22;8771;48.048;7.682;2023-03-11T13:15:39;11.50;65.80
17307;DHT22;8771;48.048;7.682;2023-03-11T13:20:48;11.60;65.50
17307;DHT22;8771;48.048;7.682;2023-03-11T13:31:43;11.80;65.40
17307;DHT22;8771;48.048;7.682;2023-03-11T13:36:54;11.60;65.90
17307;DHT22;8771;48.048;7.682;2023-03-11T13:41:59;11.50;66.30
17307;DHT22;8771;48.048;7.682;2023-03-11T13:47:08;11.60;66.20
17307;DHT22;8771;48.048;7.682;2023-03-11T13:52:17;11.70;66.10
17307;DHT22;8771;48.048;7.682;2023-03-11T13:57:26;11.80;65.90
17307;DHT22;8771;48.048;7.682;2023-03-11T14:02:30;11.80;66.00
17307;DHT22;8771;48.048;7.682;2023-03-11T14:07:34;11.80;66.00
17307;DHT22;8771;48.048;7.682;2023-03-11T14:12:38;12.00;65.80
17307;DHT22;8771;48.048;7.682;2023-03-11T14:17:42;12.00;65.70
17307;DHT22;8771;48.048;7.682;2023-03-11T14:22:44;11.90;65.80
17307;DHT22;8771;48.048;7.682;2023-03-11T14:27:51;11.60;66.10
17307;DHT22;8771;48.048;7.682;2023-03-11T14:33:00;11.30;66.40
17307;DHT22;8771;48.048;7.682;2023-03-11T14:38:17;11.30;66.70
17307;DHT22;8771;48.048;7.682;2023-03-11T14:43:20;11.40;66.30
17307;DHT22;8771;48.048;7.682;2023-03-11T14:48:26;11.40;66.10
17307;DHT22;8771;48.048;7.682;2023-03-11T14:53:33;11.40;66.10
17307;DHT22;8771;48.048;7.682;2023-03-11T14:58:39;11.50;65.90
17307;DHT22;8771;48.048;7.682;2023-03-11T15:03:48;11.60;65.80
17307;DHT22;8771;48.048;7.682;2023-03-11T15:08:57;11.70;65.60
17307;DHT22;8771;48.048;7.682;2023-03-11T15:14:13;11.70;65.60
17307;DHT22;8771;48.048;7.682;2023-03-11T15:19:30;11.80;65.50
17307;DHT22;8771;48.048;7.682;2023-03-11T15:24:34;11.80;65.40
17307;DHT22;8771;48.048;7.682;2023-03-11T15:29:45;11.70;65.40
17307;DHT22;8771;48.048;7.682;2023-03-11T15:35:00;11.70;65.60
17307;DHT22;8771;48.048;7.682;2023-03-11T15:40:11;11.60;65.80
17307;DHT22;8771;48.048;7.682;2023-03-11T15:45:16;11.50;65.80
17307;DHT22;8771;48.048;7.682;2023-03-11T15:50:24;11.30;65.90
17307;DHT22;8771;48.048;7.682;2023-03-11T15:55:28;11.20;65.90
17307;DHT22;8771;48.048;7.682;2023-03-11T16:00:31;11.20;66.00
17307;DHT22;8771;48.048;7.682;2023-03-11T16:05:36;11.10;66.00
17307;DHT22;8771;48.048;7.682;2023-03-11T16:10:39;11.00;66.10
17307;DHT22;8771;48.048;7.682;2023-03-11T16:15:42;10.90;66.10
17307;DHT22;8771;48.048;7.682;2023-03-11T16:20:50;10.90;66.10
17307;DHT22;8771;48.048;7.682;2023-03-11T16:25:57;10.80;66.10
17307;DHT22;8771;48.048;7.682;2023-03-11T16:30:59;10.80;66.10
17307;DHT22;8771;48.048;7.682;2023-03-11T16:36:05;10.80;66.10
17307;DHT22;8771;48.048;7.682;2023-03-11T16:41:08;10.80;65.90
17307;DHT22;8771;48.048;7.682;2023-03-11T16:46:13;10.90;65.90
17307;DHT22;8771;48.048;7.682;2023-03-11T16:51:16;10.90;65.70
17307;DHT22;8771;48.048;7.682;2023-03-11T16:56:18;10.90;65.50
17307;DHT22;8771;48.048;7.682;2023-03-11T17:01:21;10.90;65.40
17307;DHT22;8771;48.048;7.682;2023-03-11T17:06:24;10.90;65.50
17307;DHT22;8771;48.048;7.682;2023-03-11T17:11:26;10.80;65.60
17307;DHT22;8771;48.048;7.682;2023-03-11T17:16:33;10.70;65.70
17307;DHT22;8771;48.048;7.682;2023-03-11T17:21:36;10.60;65.70
17307;DHT22;8771;48.048;7.682;2023-03-11T17:26:38;10.50;65.70
17307;DHT22;8771;48.048;7.682;2023-03-11T17:31:40;10.40;65.70
17307;DHT22;8771;48.048;7.682;2023-03-11T17:36:43;10.30;65.70
17307;DHT22;8771;48.048;7.682;2023-03-11T17:41:45;10.30;65.80
17307;DHT22;8771;48.048;7.682;2023-03-11T17:46:47;10.20;65.80
17307;DHT22;8771;48.048;7.682;2023-03-11T17:51:51;10.10;65.80
17307;DHT22;8771;48.048;7.682;2023-03-11T17:56:55;10.00;65.80
17307;DHT22;8771;48.048;7.682;2023-03-11T18:01:57;9.90;66.70
17307;DHT22;8771;48.048;7.682;2023-03-11T18:07:00;9.80;66.00
17307;DHT22;8771;48.048;7.682;2023-03-11T18:12:03;9.70;66.10
17307;DHT22;8771;48.048;7.682;2023-03-11T18:17:06;9.50;66.20
17307;DHT22;8771;48.048;7.682;2023-03-11T18:22:09;9.40;66.40
17307;DHT22;8771;48.048;7.682;2023-03-11T18:27:11;9.20;66.50
17307;DHT22;8771;48.048;7.682;2023-03-11T18:32:16;9.00;66.80
17307;DHT22;8771;48.048;7.682;2023-03-11T18:37:21;8.90;66.90
17307;DHT22;8771;48.048;7.682;2023-03-11T18:42:24;8.80;67.00
17307;DHT22;8771;48.048;7.682;2023-03-11T18:47:26;8.60;66.90
17307;DHT22;8771;48.048;7.682;2023-03-11T18:52:29;8.50;66.90
17307;DHT22;8771;48.048;7.682;2023-03-11T18:57:31;8.40;67.00
17307;DHT22;8771;48.048;7.682;2023-03-11T19:02:33;8.20;67.00
17307;DHT22;8771;48.048;7.682;2023-03-11T19:07:38;8.10;67.20
17307;DHT22;8771;48.048;7.682;2023-03-11T19:12:41;8.00;67.20
17307;DHT22;8771;48.048;7.682;2023-03-11T19:17:45;7.90;67.10
17307;DHT22;8771;48.048;7.682;2023-03-11T19:22:49;7.80;67.10
17307;DHT22;8771;48.048;7.682;2023-03-11T19:27:52;7.70;67.10
17307;DHT22;8771;48.048;7.682;2023-03-11T19:32:55;7.60;67.10
17307;DHT22;8771;48.048;7.682;2023-03-11T19:38:00;7.50;67.10
17307;DHT22;8771;48.048;7.682;2023-03-11T19:43:02;7.30;67.30
17307;DHT22;8771;48.048;7.682;2023-03-11T19:48:05;7.30;67.40
17307;DHT22;8771;48.048;7.682;2023-03-11T19:53:08;7.10;67.40
17307;DHT22;8771;48.048;7.682;2023-03-11T19:58:10;7.00;67.60
17307;DHT22;8771;48.048;7.682;2023-03-11T20:03:13;6.90;67.50
17307;DHT22;8771;48.048;7.682;2023-03-11T20:08:19;6.90;67.50
17307;DHT22;8771;48.048;7.682;2023-03-11T20:13:22;6.70;67.50
17307;DHT22;8771;48.048;7.682;2023-03-11T20:18:25;6.70;67.70
17307;DHT22;8771;48.048;7.682;2023-03-11T20:23:30;6.50;67.60
17307;DHT22;8771;48.048;7.682;2023-03-11T20:28:34;6.40;67.70
17307;DHT22;8771;48.048;7.682;2023-03-11T20:38:42;6.30;67.00
17307;DHT22;8771;48.048;7.682;2023-03-11T20:43:45;6.20;67.70
17307;DHT22;8771;48.048;7.682;2023-03-11T20:48:48;6.10;67.80
17307;DHT22;8771;48.048;7.682;2023-03-11T20:53:52;6.00;67.70
17307;DHT22;8771;48.048;7.682;2023-03-11T20:58:55;5.90;67.70
17307;DHT22;8771;48.048;7.682;2023-03-11T21:04:01;5.90;68.60
17307;DHT22;8771;48.048;7.682;2023-03-11T21:09:06;5.80;67.80
17307;DHT22;8771;48.048;7.682;2023-03-11T21:14:09;5.70;67.70
17307;DHT22;8771;48.048;7.682;2023-03-11T21:19:11;5.70;67.80
17307;DHT22;8771;48.048;7.682;2023-03-11T21:24:15;5.60;67.80
17307;DHT22;8771;48.048;7.682;2023-03-11T21:29:17;5.50;67.90
17307;DHT22;8771;48.048;7.682;2023-03-11T21:34:19;5.40;67.90
17307;DHT22;8771;48.048;7.682;2023-03-11T21:39:23;5.40;68.00
17307;DHT22;8771;48.048;7.682;2023-03-11T21:44:25;5.30;68.00
17307;DHT22;8771;48.048;7.682;2023-03-11T21:49:26;5.20;68.00
17307;DHT22;8771;48.048;7.682;2023-03-11T21:54:30;5.20;68.10
17307;DHT22;8771;48.048;7.682;2023-03-11T21:59:32;5.10;68.00
17307;DHT22;8771;48.048;7.682;2023-03-11T22:04:34;5.10;68.10
17307;DHT22;8771;48.048;7.682;2023-03-11T22:09:38;5.00;68.00
17307;DHT22;8771;48.048;7.682;2023-03-11T22:14:40;5.00;67.90
17307;DHT22;8771;48.048;7.682;2023-03-11T22:19:42;5.00;68.00
17307;DHT22;8771;48.048;7.682;2023-03-11T22:24:46;4.90;67.80
17307;DHT22;8771;48.048;7.682;2023-03-11T22:29:48;4.90;67.90
17307;DHT22;8771;48.048;7.682;2023-03-11T22:34:50;5.00;67.90
17307;DHT22;8771;48.048;7.682;2023-03-11T22:39:53;4.90;67.80
17307;DHT22;8771;48.048;7.682;2023-03-11T22:44:55;4.90;67.80
17307;DHT22;8771;48.048;7.682;2023-03-11T22:49:57;4.90;67.80
17307;DHT22;8771;48.048;7.682;2023-03-11T22:55:01;4.90;67.80
17307;DHT22;8771;48.048;7.682;2023-03-11T23:00:09;4.80;67.80
17307;DHT22;8771;48.048;7.682;2023-03-11T23:05:33;4.80;67.80
17307;DHT22;8771;48.048;7.682;2023-03-11T23:10:45;4.80;67.80
17307;DHT22;8771;48.048;7.682;2023-03-11T23:15:48;4.80;67.70
17307;DHT22;8771;48.048;7.682;2023-03-11T23:20:50;4.80;67.60
17307;DHT22;8771;48.048;7.682;2023-03-11T23:25:54;4.90;67.60
17307;DHT22;8771;48.048;7.682;2023-03-11T23:30:55;4.90;67.50
17307;DHT22;8771;48.048;7.682;2023-03-11T23:35:59;4.90;67.40
17307;DHT22;8771;48.048;7.682;2023-03-11T23:41:04;4.90;67.40
17307;DHT22;8771;48.048;7.682;2023-03-11T23:46:07;4.90;67.50
17307;DHT22;8771;48.048;7.682;2023-03-11T23:51:09;4.90;67.50
17307;DHT22;8771;48.048;7.682;2023-03-11T23:56:16;4.90;67.70
